Time;durP1;ratioP1;P1;durP2;ratioP2;P2;SDS_P1;SDS_P2;PMS_P1;PMS_P2;Temp;Humidity;BMP_temperature;BMP_pressure;BME280_temperature;BME280_humidity;BME280_pressure;Samples;Min_cycle;Max_cycle;Signal;HPM_P1;HPM_P2
2022/11/16 00:01:34;;;;;;;2.45;1.30;;;;;;;17.33;64.52;95383.59;10432220;28;20044;-31
2022/11/16 00:06:34;;;;;;;3.20;1.52;;;;;;;17.34;64.50;95392.03;10435820;28;20162;-30
2022/11/16 00:11:36;;;;;;;6.10;1.33;;;;;;;17.29;64.64;95371.00;10442075;28;20395;-30
2022/11/16 00:16:36;;;;;;;3.50;1.52;;;;;;;17.38;64.33;95386.91;10435493;28;20294;-30
2022/11/16 00:21:36;;;;;;;2.22;1.40;;;;;;;17.38;64.32;95378.47;10434324;28;20506;-31
2022/11/16 00:26:37;;;;;;;1.57;0.90;;;;;;;17.34;64.54;95365.00;10437513;28;20527;-30
2022/11/16 00:31:37;;;;;;;2.03;1.30;;;;;;;17.33;64.73;95360.81;10426498;28;20283;-31
2022/11/16 00:36:38;;;;;;;2.63;1.20;;;;;;;17.34;64.38;95364.19;10435282;28;20284;-30
2022/11/16 00:41:39;;;;;;;3.80;1.40;;;;;;;17.34;64.81;95359.13;10433370;28;20539;-30
2022/11/16 00:46:40;;;;;;;3.08;1.02;;;;;;;17.32;64.75;95371.81;10435535;28;20026;-30
2022/11/16 00:51:40;;;;;;;2.95;1.27;;;;;;;17.42;64.34;95387.69;10432115;28;20037;-30
2022/11/16 00:56:42;;;;;;;3.35;1.50;;;;;;;17.42;64.88;95383.47;10436907;28;20033;-31
2022/11/16 01:01:42;;;;;;;1.63;1.20;;;;;;;17.43;64.49;95381.78;10427574;28;20033;-31
2022/11/16 01:06:42;;;;;;;1.07;0.97;;;;;;;17.37;64.45;95379.34;10437631;28;20275;-31
2022/11/16 01:17:03;;;;;;;3.55;1.42;;;;;;;17.37;64.38;95385.25;10433699;28;20399;-30
2022/11/16 01:22:04;;;;;;;5.35;1.30;;;;;;;17.34;64.75;95379.38;10431911;28;20029;-30
2022/11/16 01:27:04;;;;;;;3.40;1.20;;;;;;;17.36;64.72;95372.63;10434717;28;20501;-30
2022/11/16 01:32:07;;;;;;;1.58;1.05;;;;;;;17.34;64.83;95379.38;10429639;28;20036;-31
2022/11/16 01:37:08;;;;;;;2.67;0.98;;;;;;;17.39;64.36;95393.66;10432558;28;20040;-30
2022/11/16 01:42:17;;;;;;;3.92;1.20;;;;;;;17.43;64.49;95402.03;10433568;28;20063;-30
2022/11/16 01:47:18;;;;;;;3.85;1.50;;;;;;;17.42;64.41;95403.69;10430664;28;20544;-29
2022/11/16 01:52:23;;;;;;;3.85;1.75;;;;;;;17.40;64.56;95404.63;10433613;28;20063;-31
2022/11/16 01:57:32;;;;;;;2.25;0.93;;;;;;;17.39;64.54;95393.66;10431595;28;20037;-30
2022/11/16 02:02:39;;;;;;;2.70;1.00;;;;;;;17.45;64.18;95393.56;10424515;28;20048;-30
2022/11/16 02:13:37;;;;;;;2.22;1.30;;;;;;;17.51;63.98;95385.00;10435416;28;20118;-30
2022/11/16 02:19:03;;;;;;;1.85;1.00;;;;;;;17.46;64.31;95384.25;10439053;28;20540;-31
2022/11/16 02:24:10;;;;;;;2.58;1.17;;;;;;;17.39;64.67;95368.34;10443528;28;20095;-30
2022/11/16 02:29:17;;;;;;;3.90;1.30;;;;;;;17.40;64.46;95390.25;10439438;28;20535;-31
2022/11/16 02:34:20;;;;;;;2.33;0.98;;;;;;;17.36;64.99;95381.06;10434722;28;20037;-30
2022/11/16 02:39:24;;;;;;;1.42;0.80;;;;;;;17.35;64.91;95391.16;10442558;28;20029;-30
2022/11/16 02:44:31;;;;;;;3.10;1.48;;;;;;;17.37;64.65;95400.44;10435979;28;20072;-30
2022/11/16 02:49:35;;;;;;;2.33;1.30;;;;;;;17.35;64.84;95386.94;10433150;28;20033;-30
2022/11/16 02:54:36;;;;;;;5.28;1.52;;;;;;;17.36;64.91;95385.28;10437345;28;20036;-30
2022/11/16 02:59:49;;;;;;;3.15;1.10;;;;;;;17.37;64.93;95384.41;10435399;28;20514;-30
2022/11/16 03:05:14;;;;;;;4.53;1.55;;;;;;;17.40;64.60;95402.09;10433249;28;20033;-30
2022/11/16 03:15:43;;;;;;;2.38;1.15;;;;;;;17.42;64.53;95421.41;10439040;28;20029;-30
2022/11/16 03:20:48;;;;;;;4.30;1.10;;;;;;;17.47;64.35;95416.28;10435246;28;20045;-30
2022/11/16 03:25:51;;;;;;;2.10;1.20;;;;;;;17.47;64.33;95416.28;10440909;28;20098;-30
2022/11/16 03:31:15;;;;;;;2.50;1.15;;;;;;;17.48;64.29;95418.78;10440634;28;20175;-30
2022/11/16 03:36:24;;;;;;;1.35;0.90;;;;;;;17.41;64.68;95421.47;10432353;28;20033;-30
2022/11/16 03:41:27;;;;;;;2.90;1.05;;;;;;;17.42;64.44;95418.06;10439018;28;20410;-30
2022/11/16 03:46:28;;;;;;;2.90;1.20;;;;;;;17.42;64.69;95423.13;10440826;28;20028;-30
2022/11/16 03:51:28;;;;;;;1.85;1.10;;;;;;;17.36;64.67;95413.94;10435242;28;20036;-30
2022/11/16 03:56:29;;;;;;;3.20;1.15;;;;;;;17.40;64.83;95412.19;10433707;28;20400;-30
2022/11/16 04:01:30;;;;;;;1.88;0.93;;;;;;;17.36;64.45;95418.16;10433699;28;20056;-31
2022/11/16 04:28:15;;;;;;;1.15;0.88;;;;;;;17.40;64.70;95434.97;10435691;28;20024;-30
2022/11/16 04:38:45;;;;;;;1.75;1.13;;;;;;;17.54;64.18;95427.97;10432705;28;20506;-31
2022/11/16 04:43:47;;;;;;;1.70;1.20;;;;;;;17.54;64.12;95418.69;10430999;28;20554;-30
2022/11/16 04:48:47;;;;;;;2.03;1.02;;;;;;;17.54;64.28;95431.34;10429741;28;20079;-30
2022/11/16 04:53:47;;;;;;;2.00;0.73;;;;;;;17.56;63.99;95427.09;10431874;28;20037;-30
2022/11/16 04:58:53;;;;;;;1.83;0.90;;;;;;;17.56;64.19;95421.22;10430901;28;20124;-30
2022/11/16 05:03:53;;;;;;;1.15;0.80;;;;;;;17.55;64.14;95410.25;10436782;28;20029;-30
2022/11/16 05:08:54;;;;;;;2.00;0.97;;;;;;;17.57;64.06;95415.28;10431174;28;20021;-30
2022/11/16 05:13:54;;;;;;;3.35;0.85;;;;;;;17.59;63.84;95428.72;10439922;28;20793;-30
2022/11/16 05:24:33;;;;;;;2.83;1.17;;;;;;;17.60;63.64;95430.41;10433251;28;20287;-30
2022/11/16 05:29:35;;;;;;;4.65;1.13;;;;;;;17.61;64.02;95439.66;10425843;28;20029;-31
2022/11/16 05:34:37;;;;;;;4.38;1.38;;;;;;;17.54;64.02;95427.97;10435641;28;20071;-29
2022/11/16 05:39:38;;;;;;;1.60;1.00;;;;;;;17.57;64.13;95438.06;10432374;28;20028;-31
2022/11/16 05:44:38;;;;;;;2.80;1.50;;;;;;;17.58;64.36;95444.78;10427895;28;20418;-30
2022/11/16 05:49:39;;;;;;;4.68;1.85;;;;;;;17.61;63.84;95454.84;10435135;28;20545;-30
2022/11/16 05:54:39;;;;;;;4.37;1.50;;;;;;;17.59;63.72;95444.72;10438035;28;20029;-30
2022/11/16 05:59:40;;;;;;;4.27;1.00;;;;;;;17.57;64.03;95446.47;10444675;28;20863;-32
2022/11/16 06:04:40;;;;;;;4.20;1.92;;;;;;;17.61;63.78;95449.78;10436103;28;20287;-30
2022/11/16 06:09:42;;;;;;;7.22;2.35;;;;;;;17.61;64.18;95452.31;10435153;28;20057;-30
2022/11/16 06:14:49;;;;;;;9.68;2.88;;;;;;;17.58;64.42;95454.91;10441264;28;20033;-32
2022/11/16 06:19:50;;;;;;;7.65;2.53;;;;;;;17.55;64.15;95460.00;10434328;28;20029;-31
2022/11/16 06:24:50;;;;;;;6.43;3.10;;;;;;;17.56;64.53;95461.69;10443223;28;20056;-30
2022/11/16 06:29:51;;;;;;;11.75;3.00;;;;;;;17.56;64.86;95461.69;10440027;28;20024;-30
2022/11/16 06:34:53;;;;;;;10.13;3.10;;;;;;;17.46;63.21;95472.78;10435498;28;20406;-30
2022/11/16 06:39:53;;;;;;;9.35;2.97;;;;;;;17.40;62.67;95475.44;10439559;28;20771;-31
2022/11/16 06:44:54;;;;;;;11.18;2.15;;;;;;;17.47;63.27;95477.00;10434847;28;20030;-30
2022/11/16 06:49:59;;;;;;;10.38;3.25;;;;;;;17.44;63.62;95470.31;10440324;28;20709;-31
2022/11/16 06:55:00;;;;;;;5.63;2.35;;;;;;;17.53;63.45;95481.97;10434353;28;20034;-30
2022/11/16 07:00:07;;;;;;;11.98;2.80;;;;;;;17.53;63.64;95494.63;10439687;28;20032;-30
2022/11/16 07:05:09;;;;;;;6.68;2.53;;;;;;;17.54;63.76;95491.22;10434764;28;20032;-30
2022/11/16 07:10:10;;;;;;;7.95;2.17;;;;;;;17.54;63.62;95498.81;10439364;28;20032;-31
2022/11/16 07:15:10;;;;;;;5.15;2.60;;;;;;;17.48;63.56;95497.22;10441374;28;20064;-32
2022/11/16 07:20:14;;;;;;;6.60;2.35;;;;;;;17.51;63.74;95514.06;10435962;28;20040;-30
2022/11/16 07:25:15;;;;;;;2.80;2.08;;;;;;;17.52;63.86;95513.19;10440853;28;20029;-30
2022/11/16 07:30:15;;;;;;;5.95;2.03;;;;;;;17.51;63.88;95519.13;10438510;28;20033;-30
2022/11/16 07:35:21;;;;;;;3.83;2.53;;;;;;;17.50;63.95;95519.97;10435692;28;20034;-30
2022/11/16 07:40:21;;;;;;;3.13;1.83;;;;;;;17.50;64.00;95532.63;10436501;28;20295;-29
2022/11/16 07:45:22;;;;;;;4.18;1.83;;;;;;;17.49;63.87;95536.84;10437864;28;20745;-31
2022/11/16 07:50:28;;;;;;;5.40;1.85;;;;;;;17.51;63.97;95537.66;10438383;28;20083;-30
2022/11/16 07:55:31;;;;;;;3.92;1.95;;;;;;;17.48;64.03;95534.34;10432589;28;20179;-30
2022/11/16 08:00:31;;;;;;;3.83;1.58;;;;;;;17.49;63.72;95548.69;10437849;28;20111;-31
2022/11/16 08:05:43;;;;;;;4.00;1.65;;;;;;;17.50;64.06;95535.16;10434341;28;20476;-30
2022/11/16 08:10:43;;;;;;;4.70;1.60;;;;;;;17.50;64.13;95537.69;10431812;28;20486;-31
2022/11/16 08:15:44;;;;;;;4.70;1.98;;;;;;;17.53;64.15;95550.28;10430193;28;20060;-30
2022/11/16 08:20:45;;;;;;;3.20;1.42;;;;;;;17.53;63.29;95538.47;10433906;28;20033;-31
2022/11/16 08:25:45;;;;;;;4.47;1.80;;;;;;;17.52;64.10;95541.03;10439338;28;20033;-31
2022/11/16 08:30:48;;;;;;;2.60;1.67;;;;;;;17.51;64.00;95536.81;10438220;28;20291;-30
2022/11/16 08:35:50;;;;;;;4.05;1.42;;;;;;;17.47;64.07;95545.31;10433243;28;20299;-30
2022/11/16 08:40:54;;;;;;;2.35;1.58;;;;;;;17.49;64.12;95546.16;10436539;28;20084;-30
2022/11/16 08:45:56;;;;;;;2.88;1.75;;;;;;;17.48;63.96;95547.81;10431114;28;20450;-31
2022/11/16 08:51:23;;;;;;;2.55;1.25;;;;;;;17.48;64.28;95541.94;10434296;28;20033;-30
2022/11/16 08:56:31;;;;;;;1.95;1.70;;;;;;;17.47;64.21;95543.63;10431694;28;20495;-30
2022/11/16 09:01:32;;;;;;;1.48;1.17;;;;;;;17.43;64.09;95538.63;10436314;28;20055;-30
2022/11/16 09:06:34;;;;;;;4.80;2.13;;;;;;;17.47;64.81;95558.81;10432316;28;20495;-30
2022/11/16 09:11:34;;;;;;;1.88;1.27;;;;;;;17.42;64.12;95539.50;10438188;28;20357;-30
2022/11/16 09:16:35;;;;;;;3.40;1.80;;;;;;;17.48;64.01;95560.47;10437465;28;20148;-31
2022/11/16 09:21:36;;;;;;;4.13;1.63;;;;;;;17.51;63.82;95564.66;10434597;28;20029;-30
2022/11/16 09:26:36;;;;;;;3.70;1.73;;;;;;;17.51;64.31;95565.47;10438446;28;20082;-30
2022/11/16 09:31:37;;;;;;;1.67;1.30;;;;;;;17.53;63.99;95558.72;10436313;28;20553;-29
2022/11/16 09:36:37;;;;;;;1.50;1.37;;;;;;;17.54;64.13;95564.59;10431613;28;20499;-30
2022/11/16 09:41:55;;;;;;;2.20;1.35;;;;;;;17.50;64.12;95566.34;10435999;28;20275;-30
2022/11/16 09:46:57;;;;;;;1.75;1.33;;;;;;;17.50;64.03;95568.88;10418173;28;20056;-30
2022/11/16 09:52:07;;;;;;;3.20;2.08;;;;;;;17.49;64.22;95572.25;10433912;28;20041;-30
2022/11/16 09:57:15;;;;;;;3.03;1.30;;;;;;;17.49;63.88;95566.38;10431244;28;20029;-33
2022/11/16 10:02:26;;;;;;;3.30;1.33;;;;;;;17.48;64.07;95559.66;10432811;28;20108;-31
2022/11/16 10:07:34;;;;;;;2.60;1.48;;;;;;;17.40;64.23;95547.09;10429889;28;20102;-30
2022/11/16 10:12:42;;;;;;;1.75;1.10;;;;;;;17.48;64.14;95554.59;10437717;28;20090;-31
2022/11/16 10:18:06;;;;;;;2.00;1.20;;;;;;;17.50;64.15;95555.41;10425973;28;20403;-30
2022/11/16 10:23:40;;;;;;;1.75;1.20;;;;;;;17.48;64.30;95554.59;10427512;28;20070;-30
2022/11/16 10:29:13;;;;;;;1.80;1.20;;;;;;;17.47;64.19;95545.31;10434712;28;20035;-29
2022/11/16 10:34:36;;;;;;;2.88;1.05;;;;;;;17.51;64.17;95534.28;10428038;28;20111;-30
2022/11/16 10:39:39;;;;;;;1.98;1.23;;;;;;;17.47;64.24;95530.13;10444268;28;20029;-30
2022/11/16 10:45:07;;;;;;;1.92;1.20;;;;;;;17.48;64.30;95530.13;10439983;28;20286;-30
2022/11/16 10:50:32;;;;;;;2.58;1.45;;;;;;;17.50;64.35;95513.19;10438542;28;20033;-30
2022/11/16 10:55:32;;;;;;;2.17;1.30;;;;;;;17.48;64.11;95514.13;10438853;28;20041;-31
2022/11/16 11:00:50;;;;;;;2.17;1.10;;;;;;;17.49;63.84;95515.78;10437246;28;20040;-31
2022/11/16 11:05:54;;;;;;;1.60;1.30;;;;;;;17.49;64.27;95516.59;10439587;28;20902;-30
2022/11/16 11:11:02;;;;;;;2.90;1.17;;;;;;;17.45;64.38;95512.47;10439791;28;20041;-31
2022/11/16 11:16:16;;;;;;;1.45;1.13;;;;;;;17.43;64.37;95500.69;10440441;28;20544;-31
2022/11/16 11:21:19;;;;;;;2.25;1.02;;;;;;;17.53;64.16;95502.22;10438065;28;20086;-30
2022/11/16 11:26:38;;;;;;;1.45;1.02;;;;;;;17.57;63.98;95506.38;10442071;28;20025;-29
2022/11/16 11:31:47;;;;;;;5.18;1.00;;;;;;;17.45;64.14;95496.44;10435600;28;20044;-31
2022/11/16 11:36:58;;;;;;;4.28;1.58;;;;;;;17.57;63.98;95498.78;10440374;28;20025;-30
2022/11/16 11:42:20;;;;;;;4.13;1.85;;;;;;;17.56;63.92;95487.81;10438861;28;20037;-30
2022/11/16 11:47:45;;;;;;;3.65;1.33;;;;;;;17.57;64.31;95476.00;10436588;28;20037;-30
2022/11/16 11:53:03;;;;;;;4.63;1.30;;;;;;;17.55;64.41;95480.25;10436960;28;20406;-31
2022/11/16 11:58:09;;;;;;;1.95;1.50;;;;;;;17.53;64.45;95476.91;10435096;28;20045;-32
2022/11/16 12:03:38;;;;;;;2.33;1.38;;;;;;;17.59;64.04;95479.34;10435461;28;20028;-30
2022/11/16 12:08:50;;;;;;;2.67;1.10;;;;;;;17.61;64.14;95478.47;10434163;28;20033;-30
2022/11/16 12:14:09;;;;;;;4.07;1.83;;;;;;;17.61;64.10;95472.56;10433761;28;20084;-31
2022/11/16 12:19:19;;;;;;;3.97;1.83;;;;;;;17.63;64.17;95463.22;10434433;28;20037;-30
2022/11/16 12:24:28;;;;;;;4.40;2.05;;;;;;;17.59;64.32;95436.31;10434316;28;20037;-30
2022/11/16 12:30:00;;;;;;;5.28;2.05;;;;;;;17.62;64.17;95437.13;10434720;28;20037;-30
2022/11/16 12:35:07;;;;;;;6.70;2.30;;;;;;;17.64;64.29;95429.47;10444413;28;20049;-30
2022/11/16 12:40:21;;;;;;;9.45;3.00;;;;;;;17.64;64.44;95421.88;10438956;28;20036;-30
2022/11/16 12:45:31;;;;;;;13.10;3.33;;;;;;;17.63;64.31;95417.69;10431922;28;20036;-30
2022/11/16 12:51:01;;;;;;;7.63;3.53;;;;;;;17.63;64.68;95418.53;10436832;28;20487;-30
2022/11/16 12:56:17;;;;;;;11.25;3.65;;;;;;;17.63;64.61;95397.44;10434310;28;20051;-30
2022/11/16 13:01:27;;;;;;;6.95;3.00;;;;;;;17.60;64.73;95377.25;10437878;28;20033;-29
2022/11/16 13:06:41;;;;;;;8.52;3.17;;;;;;;17.60;64.82;95372.19;10432598;28;20071;-30
2022/11/16 13:11:50;;;;;;;6.35;3.60;;;;;;;17.63;64.75;95356.94;10435006;28;20031;-30
2022/11/16 13:16:52;;;;;;;7.10;3.38;;;;;;;17.62;65.01;95352.75;10433311;28;20025;-32
2022/11/16 13:22:01;;;;;;;7.55;3.13;;;;;;;17.61;65.09;95351.09;10432273;28;20115;-30
2022/11/16 13:27:21;;;;;;;6.57;3.33;;;;;;;17.62;65.20;95351.06;10435269;28;20040;-30
2022/11/16 13:32:24;;;;;;;4.82;2.75;;;;;;;17.63;65.35;95365.38;10430514;28;20038;-30
2022/11/16 13:37:36;;;;;;;8.85;3.33;;;;;;;17.61;65.34;95359.53;10432579;28;20037;-30
2022/11/16 13:43:03;;;;;;;9.93;3.22;;;;;;;17.60;65.22;95337.63;10434947;28;20039;-30
2022/11/16 13:48:16;;;;;;;6.97;3.20;;;;;;;17.59;65.24;95330.03;10430153;28;20029;-30
2022/11/16 13:53:26;;;;;;;10.93;3.33;;;;;;;17.58;65.36;95343.56;10436129;28;20079;-33
2022/11/16 13:58:29;;;;;;;9.95;3.72;;;;;;;17.57;65.50;95344.44;10433451;28;20041;-30
2022/11/16 14:03:52;;;;;;;4.43;2.33;;;;;;;17.55;61.77;95343.59;10436487;28;20028;-30
2022/11/16 14:08:56;;;;;;;8.48;4.57;;;;;;;17.53;64.19;95338.59;10429994;28;20064;-31
2022/11/16 14:14:00;;;;;;;7.60;2.75;;;;;;;17.55;64.31;95329.25;10441767;28;20228;-30
2022/11/16 14:19:01;;;;;;;5.07;2.55;;;;;;;17.54;64.23;95335.19;10438871;28;20056;-30
2022/11/16 14:24:34;;;;;;;6.00;2.30;;;;;;;17.52;65.37;95324.28;10438231;28;20064;-30
2022/11/16 14:30:09;;;;;;;6.50;2.67;;;;;;;17.57;64.94;95311.53;10441305;28;20035;-30
2022/11/16 14:35:26;;;;;;;4.32;2.08;;;;;;;17.55;64.95;95308.19;10436157;28;20518;-30
2022/11/16 14:40:27;;;;;;;7.45;3.10;;;;;;;17.56;65.24;95304.81;10439375;28;20558;-30
2022/11/16 14:45:30;;;;;;;5.10;2.65;;;;;;;17.53;65.28;95299.78;10443512;28;20039;-30
2022/11/16 14:50:32;;;;;;;10.80;3.22;;;;;;;17.39;65.59;95271.38;10442191;28;20433;-30
2022/11/16 14:55:40;;;;;;;5.55;2.33;;;;;;;17.52;65.37;95282.94;10438503;28;20029;-30
2022/11/16 15:00:50;;;;;;;4.75;2.45;;;;;;;17.51;65.83;95288.88;10440872;28;20033;-30
2022/11/16 15:05:50;;;;;;;9.20;2.55;;;;;;;17.50;65.64;95289.72;10440365;28;20055;-30
2022/11/16 15:10:51;;;;;;;7.10;2.70;;;;;;;17.50;65.84;95282.16;10441207;28;20543;-30
2022/11/16 15:16:15;;;;;;;6.13;2.55;;;;;;;17.49;65.73;95290.59;10442765;28;20447;-30
2022/11/16 15:21:21;;;;;;;5.65;2.65;;;;;;;17.48;65.69;95292.28;10441071;28;20035;-29
2022/11/16 15:26:22;;;;;;;4.97;2.78;;;;;;;17.46;65.97;95283.03;10441465;28;20036;-30
2022/11/16 15:31:23;;;;;;;6.35;2.58;;;;;;;17.49;65.96;95283.00;10444802;28;20037;-30
2022/11/16 15:36:31;;;;;;;6.60;2.22;;;;;;;17.47;66.26;95279.66;10435514;28;20041;-29
2022/11/16 15:41:32;;;;;;;5.93;2.30;;;;;;;17.48;66.12;95274.56;10449103;28;20029;-30
2022/11/16 15:46:34;;;;;;;5.80;2.42;;;;;;;17.51;65.94;95253.44;10441476;28;20040;-30
2022/11/16 15:51:41;;;;;;;7.75;2.13;;;;;;;17.51;65.74;95256.78;10436009;28;20043;-31
2022/11/16 15:56:42;;;;;;;4.45;2.20;;;;;;;17.58;65.18;95255.00;10431608;28;20040;-31
2022/11/16 16:01:43;;;;;;;3.45;2.05;;;;;;;17.60;65.11;95246.53;10445545;28;20498;-31
2022/11/16 16:06:50;;;;;;;5.55;2.30;;;;;;;17.62;65.16;95246.47;10450381;28;20475;-30
2022/11/16 16:11:52;;;;;;;2.67;1.80;;;;;;;17.61;65.09;95242.28;10446577;28;20115;-29
2022/11/16 16:16:58;;;;;;;6.88;2.85;;;;;;;17.60;65.14;95235.56;10444062;28;20044;-30
2022/11/16 16:21:59;;;;;;;5.70;2.00;;;;;;;17.58;65.17;95233.03;10433100;28;20032;-29
2022/11/16 16:26:59;;;;;;;4.75;2.05;;;;;;;17.56;65.32;95234.78;10423266;28;20148;-30
2022/11/16 16:31:59;;;;;;;4.40;2.13;;;;;;;17.54;65.73;95228.91;10437686;28;20427;-29
2022/11/16 16:37:00;;;;;;;3.00;1.97;;;;;;;17.54;65.64;95231.44;10435738;28;20116;-29
2022/11/16 16:42:01;;;;;;;8.53;2.33;;;;;;;17.58;65.29;95222.91;10438717;28;20045;-29
2022/11/16 16:47:01;;;;;;;4.88;2.28;;;;;;;17.57;62.37;95233.91;10435132;28;20040;-29
2022/11/16 16:52:03;;;;;;;6.80;2.05;;;;;;;17.59;64.23;95228.81;10438732;28;20051;-30
2022/11/16 16:57:03;;;;;;;10.77;2.90;;;;;;;17.56;64.65;95227.19;10437167;28;20033;-29
2022/11/16 17:02:04;;;;;;;3.70;2.10;;;;;;;17.63;64.32;95231.25;10438849;28;20047;-29
2022/11/16 17:07:04;;;;;;;5.33;2.00;;;;;;;17.63;64.75;95241.38;10440343;28;20025;-30
2022/11/16 17:12:05;;;;;;;5.90;2.03;;;;;;;17.66;64.50;95230.38;10436845;28;20044;-30
2022/11/16 17:17:05;;;;;;;4.95;2.55;;;;;;;17.66;64.50;95235.44;10448017;28;20541;-30
2022/11/16 17:22:06;;;;;;;9.07;2.20;;;;;;;17.64;64.71;95232.06;10436836;28;20033;-30
2022/11/16 17:27:06;;;;;;;8.10;3.00;;;;;;;17.62;65.31;95223.69;10423193;28;20661;-30
2022/11/16 17:32:06;;;;;;;8.63;2.17;;;;;;;17.62;65.16;95213.56;10428546;28;20291;-29
2022/11/16 17:37:07;;;;;;;7.57;2.13;;;;;;;17.64;65.32;95196.66;10431765;28;20969;-30
2022/11/16 17:42:07;;;;;;;5.75;2.45;;;;;;;17.63;65.36;95195.00;10436282;28;20021;-30
2022/11/16 17:47:09;;;;;;;5.25;2.30;;;;;;;17.63;65.41;95179.81;10440813;28;20029;-30
2022/11/16 17:52:09;;;;;;;9.00;2.42;;;;;;;17.65;65.61;95157.84;10444848;28;20390;-31
2022/11/16 17:57:10;;;;;;;6.00;2.07;;;;;;;17.66;65.69;95150.22;10443222;28;20464;-31
2022/11/16 18:02:11;;;;;;;3.67;2.10;;;;;;;17.61;65.84;95128.41;10435265;28;20395;-32
2022/11/16 18:07:11;;;;;;;5.57;2.10;;;;;;;17.48;66.11;95099.19;10441144;28;20041;-33
2022/11/16 18:12:12;;;;;;;8.02;2.35;;;;;;;17.61;66.30;95105.63;10433749;28;20487;-30
2022/11/16 18:17:12;;;;;;;5.73;2.43;;;;;;;17.63;66.32;95106.41;10443197;28;20106;-30
2022/11/16 18:22:12;;;;;;;3.73;2.20;;;;;;;17.63;66.04;95099.69;10434355;28;20291;-30
2022/11/16 18:27:14;;;;;;;6.07;2.07;;;;;;;17.63;66.15;95088.72;10437771;28;20280;-31
2022/11/16 18:32:14;;;;;;;6.43;2.28;;;;;;;17.62;66.12;95076.94;10435890;28;20025;-31
2022/11/16 18:37:14;;;;;;;7.47;2.10;;;;;;;17.65;66.08;95054.09;10432016;28;20507;-30
2022/11/16 18:42:15;;;;;;;4.03;2.23;;;;;;;17.62;66.23;95056.69;10445130;28;20476;-31
2022/11/16 18:47:15;;;;;;;6.73;2.27;;;;;;;17.60;66.28;95048.31;10436476;28;20491;-30
2022/11/16 18:52:16;;;;;;;6.72;2.58;;;;;;;17.64;66.52;95072.66;10441159;28;20459;-30
2022/11/16 18:57:16;;;;;;;8.03;1.83;;;;;;;17.70;66.37;95075.91;10436087;28;20499;-30
2022/11/16 19:02:16;;;;;;;6.90;3.10;;;;;;;17.65;66.77;95072.63;10434700;28;20040;-31
2022/11/16 19:07:17;;;;;;;7.80;2.73;;;;;;;17.63;66.53;95089.56;10437226;28;20506;-30
2022/11/16 19:12:17;;;;;;;7.77;2.60;;;;;;;17.63;66.77;95093.78;10444527;28;20032;-30
2022/11/16 19:17:19;;;;;;;7.60;2.67;;;;;;;17.69;66.46;95075.94;10435554;28;20557;-30
2022/11/16 19:22:19;;;;;;;8.52;3.35;;;;;;;17.71;66.08;95066.59;10432359;28;20086;-30
2022/11/16 19:27:19;;;;;;;8.30;3.47;;;;;;;17.64;66.04;95020.38;10431451;28;20091;-30
2022/11/16 19:32:20;;;;;;;7.93;2.20;;;;;;;17.65;65.79;95018.69;10428664;28;20291;-30
2022/11/16 19:37:20;;;;;;;10.37;2.70;;;;;;;17.62;65.67;95023.78;10431483;28;20487;-30
2022/11/16 19:42:21;;;;;;;10.37;2.27;;;;;;;17.70;65.87;95019.38;10431248;28;20414;-31
2022/11/16 19:47:25;;;;;;;3.78;2.05;;;;;;;17.70;65.89;95009.25;10429900;28;20411;-30
2022/11/16 19:52:25;;;;;;;6.15;2.55;;;;;;;17.69;65.66;95000.00;10435958;28;20039;-30
2022/11/16 19:57:25;;;;;;;6.57;2.53;;;;;;;17.71;66.09;95005.84;10435389;28;20047;-30
2022/11/16 20:02:26;;;;;;;4.33;2.13;;;;;;;17.70;65.80;95039.63;10433007;28;20037;-34
2022/11/16 20:07:26;;;;;;;5.67;2.10;;;;;;;17.64;65.57;95040.59;10432980;28;20033;-30
2022/11/16 20:12:27;;;;;;;3.87;1.83;;;;;;;17.69;65.21;95032.91;10440302;28;20685;-31
2022/11/16 20:17:27;;;;;;;7.37;2.23;;;;;;;17.69;65.63;95028.69;10437060;28;21329;-31
2022/11/16 20:22:27;;;;;;;6.18;2.50;;;;;;;17.72;65.81;95022.69;10433666;28;20299;-31
2022/11/16 20:27:28;;;;;;;5.27;2.10;;;;;;;17.73;66.31;95025.19;10434612;28;20047;-30
2022/11/16 20:32:28;;;;;;;8.23;2.20;;;;;;;17.77;65.56;95023.44;10427329;28;20468;-32
2022/11/16 20:37:28;;;;;;;5.77;1.83;;;;;;;17.76;65.64;95014.19;10428444;28;20288;-31
2022/11/16 20:42:29;;;;;;;4.40;2.10;;;;;;;17.77;65.61;95010.78;10434083;28;20837;-30
2022/11/16 20:47:29;;;;;;;4.13;1.70;;;;;;;17.71;65.50;95010.91;10438072;28;20082;-30
2022/11/16 20:52:29;;;;;;;6.83;2.43;;;;;;;17.69;65.52;95007.59;10435963;28;20479;-30
2022/11/16 20:57:30;;;;;;;3.10;1.67;;;;;;;17.77;65.42;95020.91;10433257;28;20550;-30
2022/11/16 21:02:30;;;;;;;5.30;1.73;;;;;;;17.76;65.36;95036.97;10441007;28;20430;-30
2022/11/16 21:07:31;;;;;;;6.57;1.93;;;;;;;17.75;65.36;95050.50;10432064;28;20098;-30
2022/11/16 21:17:50;;;;;;;7.53;2.20;;;;;;;17.73;65.52;95019.31;10436076;28;20486;-31
2022/11/16 21:22:50;;;;;;;2.63;1.60;;;;;;;17.73;65.67;95019.31;10431309;28;20399;-30
2022/11/16 21:27:50;;;;;;;4.00;1.53;;;;;;;17.73;65.61;95011.72;10436378;28;20040;-30
2022/11/16 21:32:51;;;;;;;2.93;1.63;;;;;;;17.65;65.68;95018.69;10431394;28;20029;-30
2022/11/16 21:37:51;;;;;;;2.90;1.50;;;;;;;17.74;65.82;95015.91;10438385;28;20487;-30
2022/11/16 21:42:51;;;;;;;5.33;1.63;;;;;;;17.73;65.77;95004.16;10436330;28;20475;-30
2022/11/16 21:47:52;;;;;;;4.03;1.73;;;;;;;17.74;65.64;94998.22;10425742;28;20040;-30
2022/11/16 21:52:52;;;;;;;3.10;1.50;;;;;;;17.71;65.55;94985.59;10436426;28;20287;-31
2022/11/16 21:57:53;;;;;;;4.18;1.50;;;;;;;17.69;65.59;94978.06;10432055;28;20040;-30
2022/11/16 22:02:53;;;;;;;4.00;1.73;;;;;;;17.70;65.58;94961.19;10429061;28;20032;-30
2022/11/16 22:07:54;;;;;;;6.38;2.60;;;;;;;17.71;65.34;94960.31;10433557;28;20037;-30
2022/11/16 22:12:54;;;;;;;3.57;1.70;;;;;;;17.66;65.86;94949.47;10439315;28;20037;-30
2022/11/16 22:17:54;;;;;;;5.83;1.20;;;;;;;17.68;65.45;94958.69;10430925;28;20311;-31
2022/11/16 22:22:55;;;;;;;3.85;1.52;;;;;;;17.65;65.79;94955.41;10431471;28;20383;-30
2022/11/16 22:27:55;;;;;;;5.90;1.50;;;;;;;17.66;65.66;94952.81;10435635;28;20025;-30
2022/11/16 22:32:55;;;;;;;4.70;1.40;;;;;;;17.65;65.70;94947.81;10428133;28;20492;-30
2022/11/16 22:37:58;;;;;;;2.27;1.23;;;;;;;17.63;65.67;94920.03;10444158;28;20062;-30
2022/11/16 22:42:58;;;;;;;3.35;1.42;;;;;;;17.66;65.66;94914.06;10441656;28;20389;-30
2022/11/16 22:47:58;;;;;;;2.25;1.23;;;;;;;17.68;65.43;94905.53;10433028;28;20037;-30
2022/11/16 22:52:59;;;;;;;3.53;1.47;;;;;;;17.69;65.82;94904.69;10441113;28;20040;-31
2022/11/16 22:57:59;;;;;;;4.47;1.30;;;;;;;17.69;65.82;94916.50;10438517;28;20090;-30
2022/11/16 23:02:59;;;;;;;2.83;1.40;;;;;;;17.70;65.42;94910.56;10434897;28;20025;-30
2022/11/16 23:08:00;;;;;;;4.03;1.73;;;;;;;17.69;65.35;94907.22;10438753;28;20387;-29
2022/11/16 23:18:19;;;;;;;8.15;2.28;;;;;;;17.67;65.75;94882.81;10439645;28;20364;-30
2022/11/16 23:28:38;;;;;;;1.88;1.30;;;;;;;17.64;65.65;94882.88;10438486;28;20111;-30
2022/11/16 23:33:44;;;;;;;3.47;2.23;;;;;;;17.64;65.66;94881.19;10432504;28;20119;-30
2022/11/16 23:38:45;;;;;;;3.95;1.42;;;;;;;17.65;65.61;94877.78;10440571;28;20120;-32
2022/11/16 23:43:57;;;;;;;2.10;1.30;;;;;;;17.65;65.69;94864.31;10436699;28;20104;-30
2022/11/16 23:48:59;;;;;;;1.77;1.30;;;;;;;17.63;65.63;94844.09;10438364;28;20033;-31
2022/11/16 23:53:59;;;;;;;4.50;1.30;;;;;;;17.66;65.71;94858.38;10437336;28;20045;-30
2022/11/16 23:59:00;;;;;;;5.53;1.30;;;;;;;17.65;65.54;94844.06;10440648;28;20037;-30
